Latest Weather Observations for Onslow Airport

IDW60801

Issued at 5:33 pm WST Wednesday 24 May 2017 (issued every 30 minutes, with the page automatically refreshed every 10 minutes)

About weather observations | Map of weather stations | Latest weather observations for WA | Other Formats
Station Details ID: 005017 Name: ONSLOW AIRPORT Lat: -21.67 Lon: 115.11 Height: 10.5 m
Data from the previous 72 hours. | See also: Recent months at Onslow Airport
Date/Time
WST
Temp
°C
App
Temp
°C
Dew
Point
°C
Rel
Hum
%
Delta-T
°C
Wind Press
QNH
hPa
Press
MSL
hPa
Rain since
9am
mm
Dir  Spd
km/h
Gust
km/h
Spd
kts
Gust
kts
24/05:30pm 25.0 26.0 18.7 68 4.0 WNW 11 13 6 7 1015.0 1015.0 0.0
24/05:00pm 26.3 27.2 18.4 61 5.0 WNW 11 13 6 7 1014.8 1014.8 0.0
24/04:30pm 27.4 28.3 18.4 58 5.7 NW 11 15 6 8 1014.6 1014.6 0.0
24/04:00pm 27.7 28.0 17.8 54 6.3 NNW 13 17 7 9 1014.4 1014.4 0.0
24/03:30pm 28.2 28.4 17.7 53 6.6 NNW 13 17 7 9 1014.4 1014.4 0.0
24/03:00pm 28.7 29.1 18.2 53 6.7 N 13 20 7 11 1014.6 1014.6 0.0
24/02:30pm 28.2 27.5 17.4 52 6.8 NNE 17 22 9 12 1014.7 1014.7 0.0
24/02:00pm 28.1 27.3 17.9 54 6.5 NNE 19 26 10 14 1014.9 1014.9 0.0
24/01:30pm 28.0 26.9 17.8 54 6.5 NNE 20 26 11 14 1015.2 1015.2 0.0
24/01:00pm 27.8 26.9 18.2 56 6.1 NNE 20 26 11 14 1015.4 1015.4 0.0
24/12:30pm 28.2 27.2 18.0 54 6.5 NNE 20 28 11 15 1015.8 1015.8 0.0
24/12:00pm 28.2 26.3 15.8 47 7.6 NNE 20 26 11 14 1016.2 1016.2 0.0
24/11:30am 28.6 26.3 14.1 41 8.7 NNE 19 24 10 13 1016.5 1016.5 0.0
24/11:00am 27.8 25.1 13.0 40 8.7 NNE 19 22 10 12 1016.9 1016.9 0.0
24/10:30am 27.2 24.9 11.7 38 8.9 NE 15 19 8 10 1017.1 1017.1 0.0
24/10:00am 25.8 22.4 11.2 40 8.2 E 20 24 11 13 1017.2 1017.2 0.0
24/09:30am 24.8 21.3 10.3 40 8.0 ENE 19 24 10 13 1017.2 1017.2 0.0
24/09:00am 23.8 20.6 10.1 42 7.5 E 17 20 9 11 1017.2 1017.2 0.0
24/08:30am 21.7 19.3 9.9 47 6.4 E 13 15 7 8 1017.1 1017.1 0.0
24/08:00am 19.7 18.0 9.9 53 5.2 ESE 9 13 5 7 1017.0 1017.0 0.0
24/07:30am 17.7 16.1 10.3 62 3.9 ESE 9 11 5 6 1016.8 1016.8 0.0
24/07:00am 15.7 13.4 9.1 65 3.4 ESE 11 13 6 7 1016.3 1016.3 0.0
24/06:30am 15.7 14.3 9.6 67 3.2 ESE 7 7 4 4 1016.1 1016.1 0.0
24/06:00am 15.4 13.5 8.9 65 3.3 SE 9 11 5 6 1015.8 1015.8 0.0
24/05:30am 16.0 14.5 10.7 71 2.8 SE 9 11 5 6 1015.5 1015.5 0.0
24/05:00am 15.9 14.1 10.7 71 2.8 SSE 11 15 6 8 1015.4 1015.4 0.0
24/04:30am 17.5 16.6 10.6 64 3.7 SE 6 7 3 4 1015.3 1015.3 0.0
24/04:00am 17.6 16.3 10.0 61 4.0 ESE 7 7 4 4 1015.3 1015.3 0.0
24/03:30am 17.3 15.5 7.9 54 4.8 SE 7 7 4 4 1015.3 1015.3 0.0
24/03:00am 17.1 15.2 7.7 54 4.7 S 7 7 4 4 1015.4 1015.4 0.0
24/02:30am 16.5 14.8 8.2 58 4.2 SSW 7 9 4 5 1015.4 1015.4 0.0
24/02:00am 17.6 15.3 9.0 57 4.5 SSW 11 15 6 8 1015.6 1015.6 0.0
24/01:30am 18.0 16.4 10.1 60 4.2 S 9 9 5 5 1015.9 1015.9 0.0
24/01:00am 18.4 16.4 8.7 53 5.0 S 9 11 5 6 1016.3 1016.3 0.0
24/12:30am 18.3 16.7 8.8 54 4.9 SSW 7 9 4 5 1016.4 1016.4 0.0
24/12:00am 19.1 17.3 9.6 54 5.0 SSW 9 11 5 6 1016.6 1016.6 0.0
 
Date/Time
WST
Temp
°C
App
Temp
°C
Dew
Point
°C
Rel
Hum
%
Delta-T
°C
Wind Press
QNH
hPa
Press
MSL
hPa
Rain since
9am
mm
Dir  Spd
km/h
Gust
km/h
Spd
kts
Gust
kts
23/11:30pm 19.4 17.0 8.7 50 5.6 SSW 11 13 6 7 1016.9 1016.9 0.0
23/11:00pm 19.1 16.9 9.3 53 5.2 SSE 11 13 6 7 1017.0 1017.0 0.0
23/10:30pm 19.9 17.9 10.0 53 5.3 SSW 11 11 6 6 1016.8 1016.8 0.0
23/10:00pm 20.2 18.1 9.7 51 5.6 SSW 11 15 6 8 1016.9 1016.9 0.0
23/09:30pm 20.4 17.8 9.3 49 5.9 SW 13 15 7 8 1016.7 1016.7 0.0
23/09:00pm 20.6 18.8 9.5 49 5.9 SW 9 13 5 7 1016.8 1016.8 0.0
23/08:30pm 20.6 19.1 10.7 53 5.4 SW 9 13 5 7 1016.5 1016.5 0.0
23/08:00pm 20.8 19.5 13.7 64 4.1 SW 13 13 7 7 1016.1 1016.1 0.0
23/07:30pm 20.7 20.2 13.9 65 3.9 WSW 9 11 5 6 1015.9 1015.9 0.0
23/07:00pm 21.4 20.7 14.3 64 4.1 WSW 11 15 6 8 1015.6 1015.6 0.0
23/06:30pm 21.9 22.4 16.6 72 3.2 W 9 11 5 6 1015.5 1015.5 0.0
23/06:00pm 22.9 22.4 16.9 69 3.7 W 15 17 8 9 1015.2 1015.2 0.0
23/05:30pm 24.3 23.2 16.3 61 4.9 WNW 17 20 9 11 1014.8 1014.8 0.0
23/05:00pm 25.6 24.1 15.3 53 6.2 WNW 17 20 9 11 1014.5 1014.5 0.0
23/04:30pm 26.8 24.7 13.5 44 7.8 WNW 17 20 9 11 1014.2 1014.2 0.0
23/04:00pm 27.5 25.3 13.4 41 8.3 WNW 17 20 9 11 1014.2 1014.2 0.0
23/03:30pm 28.2 25.4 11.3 35 9.7 WNW 17 20 9 11 1014.4 1014.4 0.0
23/03:00pm 28.0 25.1 12.8 39 8.9 WNW 20 22 11 12 1014.4 1014.4 0.0
23/02:30pm 28.6 26.3 12.9 38 9.2 NW 17 22 9 12 1014.5 1014.5 0.0
23/02:00pm 30.1 26.2 7.3 24 12.3 NNW 17 20 9 11 1014.8 1014.8 0.0
23/01:30pm 30.4 26.7 6.3 22 12.8 N 15 20 8 11 1015.3 1015.3 0.0
23/01:00pm 30.7 27.6 7.2 23 12.7 N 13 17 7 9 1015.9 1015.9 0.0
23/12:30pm 30.4 27.6 7.0 23 12.6 N 11 17 6 9 1016.4 1016.4 0.0
23/12:00pm 30.1 27.4 5.4 21 12.9 E 9 17 5 9 1016.7 1016.7 0.0
23/11:30am 28.9 26.2 5.7 23 12.1 SE 9 13 5 7 1017.1 1017.1 0.0
23/11:00am 28.7 25.6 7.3 26 11.5 ESE 13 17 7 9 1017.3 1017.3 0.0
23/10:30am 27.4 24.0 7.8 29 10.5 SE 15 19 8 10 1017.7 1017.7 0.0
23/10:00am 25.5 21.8 8.1 33 9.3 SE 17 20 9 11 1018.0 1018.0 0.0
23/09:30am 22.9 19.4 8.6 40 7.6 S 17 20 9 11 1018.0 1018.0 0.0
23/09:00am 21.3 17.4 8.6 44 6.7 SSE 19 24 10 13 1018.2 1018.2 0.0
23/08:30am 19.8 16.2 8.5 48 5.9 SSE 17 22 9 12 1018.3 1018.3 0.0
23/08:00am 18.4 15.3 8.7 53 5.0 SSE 15 20 8 11 1018.0 1018.0 0.0
23/07:30am 16.8 13.2 8.2 57 4.4 SSE 17 22 9 12 1017.7 1017.7 0.0
23/07:00am 16.1 12.6 8.6 61 3.8 S 17 20 9 11 1017.4 1017.4 0.0
23/06:30am 15.8 12.1 8.1 60 3.9 S 17 20 9 11 1017.1 1017.1 0.0
23/06:00am 15.6 11.3 7.9 60 3.9 S 20 26 11 14 1016.7 1016.7 0.0
23/05:30am 16.0 11.9 8.0 59 4.0 S 19 24 10 13 1016.6 1016.6 0.0
23/05:00am 16.3 12.3 8.3 59 4.1 S 19 24 10 13 1016.4 1016.4 0.0
23/04:30am 16.2 12.2 8.2 59 4.0 S 19 22 10 12 1016.5 1016.5 0.0
23/04:00am 16.4 12.8 8.4 59 4.1 SSW 17 20 9 11 1016.5 1016.5 0.0
23/03:30am 16.7 13.2 8.7 59 4.1 S 17 20 9 11 1016.5 1016.5 0.0
23/03:00am 17.0 13.2 8.9 59 4.2 S 19 22 10 12 1016.7 1016.7 0.0
23/02:30am 17.3 13.9 9.2 59 4.2 S 17 20 9 11 1016.7 1016.7 0.0
23/02:00am 17.5 14.1 9.2 58 4.3 S 17 20 9 11 1017.0 1017.0 0.0
23/01:30am 17.9 14.2 9.3 57 4.5 S 19 20 10 11 1017.1 1017.1 0.0
23/01:00am 18.2 14.8 9.3 56 4.7 SSW 17 20 9 11 1017.3 1017.3 0.0
23/12:30am 18.6 15.2 9.1 54 5.0 SSW 17 20 9 11 1017.2 1017.2 0.0
23/12:00am 18.1 15.5 9.2 56 4.6 SSW 13 15 7 8 1017.2 1017.2 0.0
 
Date/Time
WST
Temp
°C
App
Temp
°C
Dew
Point
°C
Rel
Hum
%
Delta-T
°C
Wind Press
QNH
hPa
Press
MSL
hPa
Rain since
9am
mm
Dir  Spd
km/h
Gust
km/h
Spd
kts
Gust
kts
22/11:30pm 19.0 15.9 8.9 52 5.3 SSW 15 19 8 10 1017.4 1017.4 0.0
22/11:00pm 19.0 15.8 8.6 51 5.4 SSW 15 20 8 11 1017.5 1017.5 0.0
22/10:30pm 19.0 15.8 8.6 51 5.4 SW 15 19 8 10 1017.6 1017.6 0.0
22/10:00pm 19.1 16.3 9.9 55 4.9 SW 15 17 8 9 1017.4 1017.4 0.0
22/09:30pm 19.0 16.1 11.1 60 4.3 SW 17 19 9 10 1017.2 1017.2 0.0
22/09:00pm 19.0 16.7 11.8 63 4.0 WSW 15 19 8 10 1017.1 1017.1 0.0
22/08:30pm 19.3 17.5 12.1 63 4.0 WSW 13 17 7 9 1016.9 1016.9 0.0
22/08:00pm 19.6 18.1 13.1 66 3.7 WSW 13 15 7 8 1016.7 1016.7 0.0
22/07:30pm 19.9 18.6 13.8 68 3.5 W 13 15 7 8 1016.4 1016.4 0.0
22/07:00pm 20.6 19.6 14.7 69 3.5 W 13 15 7 8 1015.9 1015.9 0.0
22/06:30pm 21.4 20.6 15.0 67 3.8 W 13 17 7 9 1015.6 1015.6 0.0
22/06:00pm 22.1 20.9 15.0 64 4.2 W 15 20 8 11 1015.5 1015.5 0.0
22/05:30pm 23.2 20.9 14.2 57 5.3 WNW 19 24 10 13 1015.3 1015.3 0.0
22/05:00pm 24.1 20.7 13.6 52 6.1 W 24 28 13 15 1015.0 1015.0 0.0
22/04:30pm 25.0 22.3 13.5 48 6.7 WNW 20 28 11 15 1014.7 1014.7 0.0
22/04:00pm 25.4 21.9 12.3 44 7.5 WNW 22 28 12 15 1014.7 1014.7 0.0
22/03:30pm 26.2 22.6 11.9 41 8.2 WNW 22 28 12 15 1014.8 1014.8 0.0
22/03:00pm 28.1 24.8 4.4 22 12.1 SSE 11 17 6 9 1014.9 1014.9 0.0
22/02:30pm 28.2 24.1 4.5 22 12.1 SSE 15 22 8 12 1015.0 1015.0 0.0
22/02:00pm 28.5 24.5 4.7 22 12.2 SE 15 26 8 14 1015.3 1015.3 0.0
22/01:30pm 28.7 24.3 4.9 22 12.3 S 17 28 9 15 1015.5 1015.5 0.0
22/01:00pm 27.6 23.4 5.8 25 11.3 SSE 17 22 9 12 1016.1 1016.1 0.0
22/12:30pm 27.6 24.7 6.4 26 11.1 SE 11 19 6 10 1016.5 1016.5 0.0
22/12:00pm 26.7 22.7 6.7 28 10.5 SE 17 26 9 14 1017.0 1017.0 0.0
22/11:30am 26.8 23.6 8.3 31 10.0 SE 15 22 8 12 1017.5 1017.5 0.0
22/11:00am 25.5 21.5 8.9 35 9.0 SE 20 26 11 14 1017.9 1017.9 0.0
22/10:30am 24.7 20.1 9.8 39 8.2 SE 24 30 13 16 1018.2 1018.2 0.0
22/10:00am 23.8 20.5 10.8 44 7.2 SE 19 26 10 14 1018.4 1018.4 0.0
22/09:30am 22.4 18.5 10.9 48 6.4 SE 22 28 12 15 1018.6 1018.6 0.0
22/09:00am 21.4 18.1 10.9 51 5.8 SE 19 26 10 14 1018.4 1018.4 0.0
22/08:30am 19.9 17.0 10.9 56 4.9 SSE 17 20 9 11 1018.4 1018.4 0.0
22/08:00am 18.8 15.5 10.9 60 4.3 SSE 19 22 10 12 1018.2 1018.2 0.0
22/07:30am 17.2 13.8 10.6 65 3.5 S 19 22 10 12 1017.8 1017.8 0.0
22/07:00am 16.2 12.8 10.5 69 3.0 SSW 19 22 10 12 1017.4 1017.4 0.0
22/06:30am 16.3 12.9 10.4 68 3.1 SSW 19 24 10 13 1017.1 1017.1 0.0
22/06:00am 16.3 12.9 10.4 68 3.1 SSW 19 24 10 13 1016.8 1016.8 0.0
22/05:30am 16.6 13.2 10.5 67 3.2 SSW 19 24 10 13 1016.4 1016.4 0.0
22/05:00am 16.8 13.8 10.6 67 3.3 S 17 20 9 11 1016.2 1016.2 0.0
22/04:30am 16.9 14.3 10.7 67 3.3 S 15 22 8 12 1016.0 1016.0 0.0
22/04:00am 17.4 14.4 10.8 65 3.5 S 17 22 9 12 1015.7 1015.7 0.0
22/03:30am 17.4 14.1 10.8 65 3.5 S 19 24 10 13 1015.5 1015.5 0.0
22/03:00am 17.5 14.1 10.6 64 3.7 S 19 24 10 13 1015.4 1015.4 0.0
22/02:30am 17.7 14.2 10.8 64 3.7 S 20 26 11 14 1015.2 1015.2 0.0
22/02:00am 18.1 14.6 11.0 63 3.8 SSW 20 26 11 14 1015.2 1015.2 0.0
22/01:30am 18.4 14.9 11.0 62 4.0 SSW 20 28 11 15 1015.2 1015.2 0.0
22/01:00am 18.6 14.7 10.9 61 4.2 SSW 22 30 12 16 1015.1 1015.1 0.0
22/12:30am 18.8 15.3 10.9 60 4.3 SSW 20 26 11 14 1015.1 1015.1 0.0
22/12:00am 18.9 16.1 11.2 61 4.2 SSW 17 20 9 11 1015.2 1015.2 0.0
 
Date/Time
WST
Temp
°C
App
Temp
°C
Dew
Point
°C
Rel
Hum
%
Delta-T
°C
Wind Press
QNH
hPa
Press
MSL
hPa
Rain since
9am
mm
Dir  Spd
km/h
Gust
km/h
Spd
kts
Gust
kts
21/11:30pm 19.5 16.7 11.3 59 4.5 SSW 17 20 9 11 1015.0 1015.0 0.0
21/11:00pm 19.9 16.5 11.1 57 4.8 SSW 20 24 11 13 1015.1 1015.1 0.0
21/10:30pm 20.4 17.2 11.1 55 5.1 SSW 19 22 10 12 1015.1 1015.1 0.0
21/10:00pm 21.0 17.6 11.3 54 5.4 SSW 20 28 11 15 1015.0 1015.0 0.0
21/09:30pm 20.5 17.9 10.6 53 5.4 SSW 15 20 8 11 1015.0 1015.0 0.0
21/09:00pm 21.6 18.7 11.0 51 5.8 S 17 19 9 10 1014.7 1014.7 0.0
21/08:30pm 21.8 19.0 11.2 51 5.9 S 17 20 9 11 1014.5 1014.5 0.0
21/08:00pm 22.0 20.0 11.4 51 5.9 S 13 17 7 9 1014.1 1014.1 0.0
21/07:30pm 22.8 19.8 10.6 46 6.7 S 17 20 9 11 1013.6 1013.6 0.0
21/07:00pm 22.9 21.2 12.5 52 5.9 WSW 13 17 7 9 1013.2 1013.2 0.0
21/06:30pm 23.5 21.4 13.7 54 5.7 WSW 17 20 9 11 1012.9 1012.9 0.0
21/06:00pm 24.1 22.1 13.9 53 6.0 W 17 22 9 12 1012.4 1012.4 0.0

Other Formats:

Comma delimited format used in spreadsheet applications
http://www.bom.gov.au/fwo/IDW60801/IDW60801.95305.axf

JavaScript Object Notation format (JSON) in row-major order
http://www.bom.gov.au/fwo/IDW60801/IDW60801.95305.json